sensor_id;sensor_type;location;lat;lon;timestamp;pressure;altitude;pressure_sealevel;temperature;humidity
7532;BME280;3807;49.030;8.714;2023-01-28T00:02:01;100008.03;;;3.56;72.79
7532;BME280;3807;49.030;8.714;2023-01-28T00:04:26;100012.25;;;3.62;72.89
7532;BME280;3807;49.030;8.714;2023-01-28T00:06:51;100012.25;;;3.62;72.45
7532;BME280;3807;49.030;8.714;2023-01-28T00:09:17;100013.13;;;3.68;72.15
7532;BME280;3807;49.030;8.714;2023-01-28T00:11:43;100019.87;;;3.75;72.25
7532;BME280;3807;49.030;8.714;2023-01-28T00:14:10;100009.78;;;3.69;71.93
7532;BME280;3807;49.030;8.714;2023-01-28T00:16:35;100014.81;;;3.68;70.75
7532;BME280;3807;49.030;8.714;2023-01-28T00:19:01;100017.38;;;3.78;71.60
7532;BME280;3807;49.030;8.714;2023-01-28T00:21:26;100013.13;;;3.67;72.71
7532;BME280;3807;49.030;8.714;2023-01-28T00:23:53;100014.91;;;3.85;72.27
7532;BME280;3807;49.030;8.714;2023-01-28T00:26:20;100014.88;;;3.81;72.25
7532;BME280;3807;49.030;8.714;2023-01-28T00:28:46;100021.56;;;3.75;72.04
7532;BME280;3807;49.030;8.714;2023-01-28T00:31:23;100019.00;;;3.67;72.55
7532;BME280;3807;49.030;8.714;2023-01-28T00:33:50;100013.16;;;3.76;71.63
7532;BME280;3807;49.030;8.714;2023-01-28T00:36:17;100014.78;;;3.65;72.73
7532;BME280;3807;49.030;8.714;2023-01-28T00:38:47;100002.28;;;3.81;72.28
7532;BME280;3807;49.030;8.714;2023-01-28T00:41:15;100006.50;;;3.81;72.33
7532;BME280;3807;49.030;8.714;2023-01-28T00:43:41;100005.69;;;3.84;72.19
7532;BME280;3807;49.030;8.714;2023-01-28T00:46:08;100006.50;;;3.84;72.55
7532;BME280;3807;49.030;8.714;2023-01-28T00:48:34;100007.28;;;3.75;72.37
7532;BME280;3807;49.030;8.714;2023-01-28T00:50:59;100009.91;;;3.95;72.01
7532;BME280;3807;49.030;8.714;2023-01-28T00:53:25;100005.69;;;3.90;71.87
7532;BME280;3807;49.030;8.714;2023-01-28T00:55:50;100008.25;;;3.94;71.96
7532;BME280;3807;49.030;8.714;2023-01-28T00:58:15;100014.94;;;3.88;72.25
7532;BME280;3807;49.030;8.714;2023-01-28T01:00:41;100008.94;;;3.72;72.97
7532;BME280;3807;49.030;8.714;2023-01-28T01:03:06;100005.59;;;3.71;72.67
7532;BME280;3807;49.030;8.714;2023-01-28T01:05:31;100004.00;;;3.89;72.28
7532;BME280;3807;49.030;8.714;2023-01-28T01:07:58;100009.78;;;3.68;72.97
7532;BME280;3807;49.030;8.714;2023-01-28T01:10:23;100020.81;;;3.91;71.95
7532;BME280;3807;49.030;8.714;2023-01-28T01:12:49;100014.91;;;3.89;72.34
7532;BME280;3807;49.030;8.714;2023-01-28T01:15:15;100015.66;;;3.71;72.82
7532;BME280;3807;49.030;8.714;2023-01-28T01:17:43;100016.59;;;3.87;72.39
7532;BME280;3807;49.030;8.714;2023-01-28T01:20:18;100019.97;;;3.89;72.03
7532;BME280;3807;49.030;8.714;2023-01-28T01:22:43;100025.84;;;3.91;71.43
7532;BME280;3807;49.030;8.714;2023-01-28T01:25:10;100011.53;;;3.81;71.37
7532;BME280;3807;49.030;8.714;2023-01-28T01:27:36;100013.25;;;3.88;71.80
7532;BME280;3807;49.030;8.714;2023-01-28T01:30:02;100010.63;;;3.71;72.77
7532;BME280;3807;49.030;8.714;2023-01-28T01:32:31;100010.72;;;3.88;72.34
7532;BME280;3807;49.030;8.714;2023-01-28T01:34:57;100014.00;;;3.75;71.92
7532;BME280;3807;49.030;8.714;2023-01-28T01:37:22;100011.53;;;3.82;72.32
7532;BME280;3807;49.030;8.714;2023-01-28T01:39:48;100007.31;;;3.78;71.65
7532;BME280;3807;49.030;8.714;2023-01-28T01:42:13;100009.78;;;3.72;72.81
7532;BME280;3807;49.030;8.714;2023-01-28T01:44:58;100007.34;;;3.81;72.27
7532;BME280;3807;49.030;8.714;2023-01-28T01:50:15;100007.31;;;3.83;72.36
7532;BME280;3807;49.030;8.714;2023-01-28T01:52:42;100005.69;;;3.93;72.14
7532;BME280;3807;49.030;8.714;2023-01-28T01:55:13;100010.66;;;3.76;72.66
7532;BME280;3807;49.030;8.714;2023-01-28T01:57:41;100011.56;;;3.92;72.26
7532;BME280;3807;49.030;8.714;2023-01-28T02:00:07;100003.13;;;3.87;72.49
7532;BME280;3807;49.030;8.714;2023-01-28T02:02:37;100009.81;;;3.75;72.62
7532;BME280;3807;49.030;8.714;2023-01-28T02:05:06;100004.78;;;3.80;72.52
7532;BME280;3807;49.030;8.714;2023-01-28T02:07:32;100010.69;;;3.82;72.48
7532;BME280;3807;49.030;8.714;2023-01-28T02:09:58;100006.50;;;3.86;72.46
7532;BME280;3807;49.030;8.714;2023-01-28T02:12:28;100013.16;;;3.76;72.69
7532;BME280;3807;49.030;8.714;2023-01-28T02:15:01;100003.13;;;3.77;72.62
7532;BME280;3807;49.030;8.714;2023-01-28T02:17:28;100011.56;;;3.93;72.28
7532;BME280;3807;49.030;8.714;2023-01-28T02:19:57;100007.41;;;3.95;72.12
7532;BME280;3807;49.030;8.714;2023-01-28T02:22:58;100010.69;;;3.80;72.51
7532;BME280;3807;49.030;8.714;2023-01-28T02:28:48;100010.72;;;3.88;72.42
7532;BME280;3807;49.030;8.714;2023-01-28T02:31:39;100007.31;;;3.78;72.60
7532;BME280;3807;49.030;8.714;2023-01-28T02:34:20;100016.53;;;3.79;72.59
7532;BME280;3807;49.030;8.714;2023-01-28T02:37:13;100020.78;;;3.87;72.34
7532;BME280;3807;49.030;8.714;2023-01-28T02:39:44;100025.75;;;3.76;72.69
7532;BME280;3807;49.030;8.714;2023-01-28T02:42:36;100025.03;;;3.95;72.19
7532;BME280;3807;49.030;8.714;2023-01-28T02:45:02;100019.09;;;3.84;72.54
7532;BME280;3807;49.030;8.714;2023-01-28T02:47:31;100025.84;;;3.88;72.43
7532;BME280;3807;49.030;8.714;2023-01-28T02:50:16;100025.03;;;3.95;72.28
7532;BME280;3807;49.030;8.714;2023-01-28T02:52:53;100026.69;;;3.92;72.26
7532;BME280;3807;49.030;8.714;2023-01-28T02:55:55;100029.16;;;3.81;72.58
7532;BME280;3807;49.030;8.714;2023-01-28T02:58:36;100030.84;;;3.82;71.96
7532;BME280;3807;49.030;8.714;2023-01-28T03:01:07;100028.28;;;3.76;72.62
7532;BME280;3807;49.030;8.714;2023-01-28T03:03:57;100027.53;;;3.91;72.39
7532;BME280;3807;49.030;8.714;2023-01-28T03:06:27;100023.31;;;3.85;72.53
7532;BME280;3807;49.030;8.714;2023-01-28T03:09:00;100025.75;;;3.74;73.02
7532;BME280;3807;49.030;8.714;2023-01-28T03:11:50;100031.69;;;3.82;72.48
7532;BME280;3807;49.030;8.714;2023-01-28T03:14:37;100028.38;;;3.88;72.53
7532;BME280;3807;49.030;8.714;2023-01-28T03:17:31;100028.31;;;3.77;73.01
7532;BME280;3807;49.030;8.714;2023-01-28T03:20:20;100032.53;;;3.86;72.22
7532;BME280;3807;49.030;8.714;2023-01-28T03:23:08;100031.72;;;3.89;72.57
7532;BME280;3807;49.030;8.714;2023-01-28T03:25:57;100035.91;;;3.88;72.53
7532;BME280;3807;49.030;8.714;2023-01-28T03:28:43;100035.06;;;3.89;72.53
7532;BME280;3807;49.030;8.714;2023-01-28T03:31:29;100035.91;;;3.90;72.49
7532;BME280;3807;49.030;8.714;2023-01-28T03:34:13;100033.34;;;3.77;72.78
7532;BME280;3807;49.030;8.714;2023-01-28T03:36:58;100029.19;;;3.90;72.45
7532;BME280;3807;49.030;8.714;2023-01-28T03:39:28;100034.25;;;3.89;72.46
7532;BME280;3807;49.030;8.714;2023-01-28T03:42:06;100038.38;;;3.77;72.87
7532;BME280;3807;49.030;8.714;2023-01-28T03:44:32;100040.94;;;3.90;72.19
7532;BME280;3807;49.030;8.714;2023-01-28T03:47:21;100040.13;;;3.88;72.75
7532;BME280;3807;49.030;8.714;2023-01-28T03:49:49;100036.78;;;3.92;72.37
7532;BME280;3807;49.030;8.714;2023-01-28T03:52:17;100038.41;;;3.87;72.43
7532;BME280;3807;49.030;8.714;2023-01-28T03:54:47;100030.03;;;3.85;72.84
7532;BME280;3807;49.030;8.714;2023-01-28T03:57:16;100039.19;;;3.75;73.01
7532;BME280;3807;49.030;8.714;2023-01-28T03:59:42;100048.56;;;3.96;72.31
7532;BME280;3807;49.030;8.714;2023-01-28T04:02:08;100041.81;;;3.92;72.59
7532;BME280;3807;49.030;8.714;2023-01-28T04:04:38;100046.81;;;3.86;72.60
7532;BME280;3807;49.030;8.714;2023-01-28T04:07:04;100056.09;;;3.93;72.55
7532;BME280;3807;49.030;8.714;2023-01-28T04:09:29;100056.84;;;3.79;73.10
7532;BME280;3807;49.030;8.714;2023-01-28T04:11:54;100056.09;;;3.93;72.59
7532;BME280;3807;49.030;8.714;2023-01-28T04:14:20;100053.59;;;3.96;72.45
7532;BME280;3807;49.030;8.714;2023-01-28T04:16:45;100059.44;;;3.87;72.57
7532;BME280;3807;49.030;8.714;2023-01-28T04:19:11;100061.97;;;3.92;72.59
7532;BME280;3807;49.030;8.714;2023-01-28T04:21:38;100056.06;;;3.87;72.74
7532;BME280;3807;49.030;8.714;2023-01-28T04:24:04;100063.59;;;3.80;72.80
7532;BME280;3807;49.030;8.714;2023-01-28T04:26:29;100062.78;;;3.89;72.75
7532;BME280;3807;49.030;8.714;2023-01-28T04:28:55;100058.56;;;3.87;72.85
7532;BME280;3807;49.030;8.714;2023-01-28T04:31:20;100063.69;;;3.94;72.56
7532;BME280;3807;49.030;8.714;2023-01-28T04:33:48;100063.66;;;3.93;72.58
7532;BME280;3807;49.030;8.714;2023-01-28T04:36:14;100058.53;;;3.77;73.06
7532;BME280;3807;49.030;8.714;2023-01-28T04:38:39;100067.84;;;3.92;72.66
7532;BME280;3807;49.030;8.714;2023-01-28T04:41:04;100067.72;;;3.72;73.35
7532;BME280;3807;49.030;8.714;2023-01-28T04:43:30;100071.19;;;3.88;72.64
7532;BME280;3807;49.030;8.714;2023-01-28T04:45:55;100073.69;;;3.87;72.93
7532;BME280;3807;49.030;8.714;2023-01-28T04:48:20;100082.03;;;3.73;73.37
7532;BME280;3807;49.030;8.714;2023-01-28T04:50:46;100077.13;;;3.95;72.58
7532;BME280;3807;49.030;8.714;2023-01-28T04:53:11;100072.00;;;3.81;73.01
7532;BME280;3807;49.030;8.714;2023-01-28T04:55:37;100065.34;;;3.91;72.79
7532;BME280;3807;49.030;8.714;2023-01-28T04:58:02;100063.63;;;3.90;72.77
7532;BME280;3807;49.030;8.714;2023-01-28T05:00:28;100072.84;;;3.81;73.14
7532;BME280;3807;49.030;8.714;2023-01-28T05:02:53;100079.59;;;3.93;72.80
7532;BME280;3807;49.030;8.714;2023-01-28T05:05:19;100088.84;;;3.88;73.08
7532;BME280;3807;49.030;8.714;2023-01-28T05:07:50;100082.91;;;3.81;73.22
7532;BME280;3807;49.030;8.714;2023-01-28T05:10:16;100079.62;;;3.92;72.98
7532;BME280;3807;49.030;8.714;2023-01-28T05:12:44;100082.09;;;3.84;73.25
7532;BME280;3807;49.030;8.714;2023-01-28T05:15:09;100084.63;;;3.87;73.18
7532;BME280;3807;49.030;8.714;2023-01-28T05:17:35;100082.91;;;3.81;73.49
7532;BME280;3807;49.030;8.714;2023-01-28T05:20:00;100080.47;;;3.91;73.21
7532;BME280;3807;49.030;8.714;2023-01-28T05:22:25;100084.53;;;3.70;73.68
7532;BME280;3807;49.030;8.714;2023-01-28T05:24:51;100088.81;;;3.90;73.37
7532;BME280;3807;49.030;8.714;2023-01-28T05:27:16;100098.03;;;3.83;73.37
7532;BME280;3807;49.030;8.714;2023-01-28T05:29:41;100093.00;;;3.81;74.25
7532;BME280;3807;49.030;8.714;2023-01-28T05:32:07;100095.53;;;3.85;73.42
7532;BME280;3807;49.030;8.714;2023-01-28T05:34:32;100094.72;;;3.87;73.77
7532;BME280;3807;49.030;8.714;2023-01-28T05:36:57;100096.38;;;3.84;73.36
7532;BME280;3807;49.030;8.714;2023-01-28T05:39:23;100097.97;;;3.75;74.10
7532;BME280;3807;49.030;8.714;2023-01-28T05:41:48;100102.19;;;3.79;75.14
7532;BME280;3807;49.030;8.714;2023-01-28T05:44:13;100098.03;;;3.86;73.82
7532;BME280;3807;49.030;8.714;2023-01-28T05:46:39;100098.81;;;3.74;74.08
7532;BME280;3807;49.030;8.714;2023-01-28T05:49:09;100096.31;;;3.74;73.91
7532;BME280;3807;49.030;8.714;2023-01-28T05:51:38;100103.97;;;3.91;73.40
7532;BME280;3807;49.030;8.714;2023-01-28T05:54:04;100101.37;;;3.77;73.94
7532;BME280;3807;49.030;8.714;2023-01-28T05:56:29;100103.88;;;3.79;74.06
7532;BME280;3807;49.030;8.714;2023-01-28T05:58:54;100109.72;;;3.75;74.09
7532;BME280;3807;49.030;8.714;2023-01-28T06:01:20;100116.44;;;3.76;73.88
7532;BME280;3807;49.030;8.714;2023-01-28T06:03:45;100114.00;;;3.85;74.09
7532;BME280;3807;49.030;8.714;2023-01-28T06:06:10;100115.63;;;3.74;74.53
7532;BME280;3807;49.030;8.714;2023-01-28T06:08:36;100119.75;;;3.67;75.35
7532;BME280;3807;49.030;8.714;2023-01-28T06:11:01;100120.62;;;3.72;74.87
7532;BME280;3807;49.030;8.714;2023-01-28T06:13:27;100132.47;;;3.84;73.95
7532;BME280;3807;49.030;8.714;2023-01-28T06:15:52;100126.56;;;3.82;73.97
7532;BME280;3807;49.030;8.714;2023-01-28T06:18:17;100135.00;;;3.84;73.85
7532;BME280;3807;49.030;8.714;2023-01-28T06:20:42;100135.81;;;3.81;74.09
7532;BME280;3807;49.030;8.714;2023-01-28T06:23:08;100143.16;;;3.52;76.20
7532;BME280;3807;49.030;8.714;2023-01-28T06:25:33;100146.59;;;3.65;74.95
7532;BME280;3807;49.030;8.714;2023-01-28T06:27:59;100150.91;;;3.80;74.21
7532;BME280;3807;49.030;8.714;2023-01-28T06:30:24;100155.13;;;3.81;74.04
7532;BME280;3807;49.030;8.714;2023-01-28T06:32:54;100159.34;;;3.84;73.91
7532;BME280;3807;49.030;8.714;2023-01-28T06:35:20;100164.16;;;3.59;74.85
7532;BME280;3807;49.030;8.714;2023-01-28T06:37:45;100159.28;;;3.74;74.38
7532;BME280;3807;49.030;8.714;2023-01-28T06:40:11;100167.72;;;3.82;73.97
7532;BME280;3807;49.030;8.714;2023-01-28T06:42:37;100163.53;;;3.83;74.25
7532;BME280;3807;49.030;8.714;2023-01-28T06:45:02;100175.19;;;3.67;74.87
7532;BME280;3807;49.030;8.714;2023-01-28T06:47:28;100165.19;;;3.78;74.20
7532;BME280;3807;49.030;8.714;2023-01-28T06:49:53;100171.94;;;3.87;73.83
7532;BME280;3807;49.030;8.714;2023-01-28T06:52:18;100166.88;;;3.80;73.98
7532;BME280;3807;49.030;8.714;2023-01-28T06:54:43;100163.47;;;3.75;73.93
7532;BME280;3807;49.030;8.714;2023-01-28T06:57:09;100169.41;;;3.80;73.96
7532;BME280;3807;49.030;8.714;2023-01-28T06:59:34;100171.94;;;3.82;73.96
7532;BME280;3807;49.030;8.714;2023-01-28T07:01:59;100176.91;;;3.74;74.18
7532;BME280;3807;49.030;8.714;2023-01-28T07:04:25;100179.41;;;3.70;74.30
7532;BME280;3807;49.030;8.714;2023-01-28T07:06:50;100174.44;;;3.80;74.08
7532;BME280;3807;49.030;8.714;2023-01-28T07:09:15;100175.22;;;3.73;74.25
7532;BME280;3807;49.030;8.714;2023-01-28T07:11:41;100178.63;;;3.80;74.11
7532;BME280;3807;49.030;8.714;2023-01-28T07:14:06;100191.28;;;3.86;73.81
7532;BME280;3807;49.030;8.714;2023-01-28T07:16:32;100188.69;;;3.78;74.27
7532;BME280;3807;49.030;8.714;2023-01-28T07:18:57;100192.09;;;3.80;73.94
7532;BME280;3807;49.030;8.714;2023-01-28T07:21:22;100192.09;;;3.87;73.71
7532;BME280;3807;49.030;8.714;2023-01-28T07:23:48;100197.84;;;3.69;74.15
7532;BME280;3807;49.030;8.714;2023-01-28T07:26:13;100200.53;;;3.87;73.82
7532;BME280;3807;49.030;8.714;2023-01-28T07:28:40;100191.28;;;3.85;73.69
7532;BME280;3807;49.030;8.714;2023-01-28T07:31:05;100198.00;;;3.86;73.61
7532;BME280;3807;49.030;8.714;2023-01-28T07:33:30;100197.16;;;3.85;73.60
7532;BME280;3807;49.030;8.714;2023-01-28T07:35:55;100198.81;;;3.85;73.64
7532;BME280;3807;49.030;8.714;2023-01-28T07:38:21;100203.00;;;3.82;74.12
7532;BME280;3807;49.030;8.714;2023-01-28T07:40:46;100197.91;;;3.75;74.00
7532;BME280;3807;49.030;8.714;2023-01-28T07:43:12;100203.00;;;3.81;73.82
7532;BME280;3807;49.030;8.714;2023-01-28T07:45:37;100205.50;;;3.79;73.83
7532;BME280;3807;49.030;8.714;2023-01-28T07:48:05;100210.50;;;3.75;74.27
7532;BME280;3807;49.030;8.714;2023-01-28T07:50:32;100207.16;;;3.77;74.27
7532;BME280;3807;49.030;8.714;2023-01-28T07:52:58;100209.44;;;3.51;75.54
7532;BME280;3807;49.030;8.714;2023-01-28T07:55:24;100207.09;;;3.67;74.69
7532;BME280;3807;49.030;8.714;2023-01-28T07:57:58;100204.62;;;3.74;74.35
7532;BME280;3807;49.030;8.714;2023-01-28T08:00:26;100211.34;;;3.74;74.66
7532;BME280;3807;49.030;8.714;2023-01-28T08:02:56;100211.28;;;3.66;74.80
7532;BME280;3807;49.030;8.714;2023-01-28T08:05:22;100215.41;;;3.61;75.17
7532;BME280;3807;49.030;8.714;2023-01-28T08:07:49;100217.16;;;3.68;74.76
7532;BME280;3807;49.030;8.714;2023-01-28T08:10:16;100215.56;;;3.78;74.14
7532;BME280;3807;49.030;8.714;2023-01-28T08:12:50;100222.25;;;3.76;74.79
7532;BME280;3807;49.030;8.714;2023-01-28T08:15:16;100217.06;;;3.56;75.04
7532;BME280;3807;49.030;8.714;2023-01-28T08:17:41;100226.34;;;3.63;74.82
7532;BME280;3807;49.030;8.714;2023-01-28T08:20:07;100229.78;;;3.71;74.76
7532;BME280;3807;49.030;8.714;2023-01-28T08:22:33;100236.59;;;3.81;74.64
7532;BME280;3807;49.030;8.714;2023-01-28T08:24:59;100228.06;;;3.69;74.93
7532;BME280;3807;49.030;8.714;2023-01-28T08:27:24;100233.16;;;3.75;74.52
7532;BME280;3807;49.030;8.714;2023-01-28T08:29:49;100227.16;;;3.62;75.38
7532;BME280;3807;49.030;8.714;2023-01-28T08:32:15;100226.34;;;3.65;75.10
7532;BME280;3807;49.030;8.714;2023-01-28T08:34:40;100229.63;;;3.53;75.58
7532;BME280;3807;49.030;8.714;2023-01-28T08:37:06;100235.59;;;3.66;75.08
7532;BME280;3807;49.030;8.714;2023-01-28T08:39:31;100237.25;;;3.62;74.82
7532;BME280;3807;49.030;8.714;2023-01-28T08:41:59;100234.00;;;3.74;74.83
7532;BME280;3807;49.030;8.714;2023-01-28T08:44:25;100237.09;;;3.48;75.86
7532;BME280;3807;49.030;8.714;2023-01-28T08:46:50;100232.09;;;3.50;75.88
7532;BME280;3807;49.030;8.714;2023-01-28T08:49:15;100239.78;;;3.65;75.33
7532;BME280;3807;49.030;8.714;2023-01-28T08:51:43;100242.25;;;3.57;75.48
7532;BME280;3807;49.030;8.714;2023-01-28T08:54:09;100243.06;;;3.53;75.63
7532;BME280;3807;49.030;8.714;2023-01-28T08:56:37;100238.84;;;3.52;75.92
7532;BME280;3807;49.030;8.714;2023-01-28T08:59:03;100239.75;;;3.61;75.87
7532;BME280;3807;49.030;8.714;2023-01-28T09:01:31;100244.91;;;3.73;74.93
7532;BME280;3807;49.030;8.714;2023-01-28T09:03:58;100248.13;;;3.58;75.89
7532;BME280;3807;49.030;8.714;2023-01-28T09:06:23;100241.56;;;3.75;74.91
7532;BME280;3807;49.030;8.714;2023-01-28T09:08:51;100243.97;;;3.62;75.44
7532;BME280;3807;49.030;8.714;2023-01-28T09:11:17;100249.91;;;3.68;74.93
7532;BME280;3807;49.030;8.714;2023-01-28T09:13:42;100250.81;;;3.75;74.90
7532;BME280;3807;49.030;8.714;2023-01-28T09:16:07;100250.94;;;3.89;74.54
7532;BME280;3807;49.030;8.714;2023-01-28T09:18:37;100255.03;;;3.77;74.87
7532;BME280;3807;49.030;8.714;2023-01-28T09:21:11;100256.72;;;3.78;75.45
7532;BME280;3807;49.030;8.714;2023-01-28T09:23:37;100256.81;;;3.88;74.86
7532;BME280;3807;49.030;8.714;2023-01-28T09:26:03;100253.31;;;3.76;75.11
7532;BME280;3807;49.030;8.714;2023-01-28T09:28:34;100254.91;;;3.65;74.93
7532;BME280;3807;49.030;8.714;2023-01-28T09:31:08;100262.62;;;3.80;74.61
7532;BME280;3807;49.030;8.714;2023-01-28T09:33:37;100265.97;;;3.78;74.73
7532;BME280;3807;49.030;8.714;2023-01-28T09:36:07;100264.31;;;3.83;74.50
7532;BME280;3807;49.030;8.714;2023-01-28T09:38:34;100266.00;;;3.82;74.95
7532;BME280;3807;49.030;8.714;2023-01-28T09:41:01;100281.88;;;3.75;74.84
7532;BME280;3807;49.030;8.714;2023-01-28T09:43:56;100274.31;;;3.75;75.44
7532;BME280;3807;49.030;8.714;2023-01-28T09:46:31;100271.72;;;3.66;75.10
7532;BME280;3807;49.030;8.714;2023-01-28T09:49:40;100279.47;;;3.86;74.72
7532;BME280;3807;49.030;8.714;2023-01-28T09:52:18;100277.69;;;3.74;75.12
7532;BME280;3807;49.030;8.714;2023-01-28T09:54:58;100289.34;;;3.65;75.43
7532;BME280;3807;49.030;8.714;2023-01-28T09:57:36;100282.72;;;3.74;75.60
7532;BME280;3807;49.030;8.714;2023-01-28T10:00:14;100283.56;;;3.73;75.30
7532;BME280;3807;49.030;8.714;2023-01-28T10:14:38;100291.19;;;3.82;75.35
7532;BME280;3807;49.030;8.714;2023-01-28T10:17:25;100287.78;;;3.79;75.28
7532;BME280;3807;49.030;8.714;2023-01-28T10:19:57;100293.63;;;3.75;75.52
7532;BME280;3807;49.030;8.714;2023-01-28T10:22:30;100277.75;;;3.80;76.23
7532;BME280;3807;49.030;8.714;2023-01-28T10:25:05;100277.72;;;3.79;76.96
7532;BME280;3807;49.030;8.714;2023-01-28T10:27:45;100272.81;;;3.93;75.88
7532;BME280;3807;49.030;8.714;2023-01-28T10:30:25;100280.28;;;3.84;75.80
7532;BME280;3807;49.030;8.714;2023-01-28T10:35:19;100276.19;;;3.96;75.31
7532;BME280;3807;49.030;8.714;2023-01-28T10:37:45;100272.78;;;3.90;76.97
7532;BME280;3807;49.030;8.714;2023-01-28T10:40:14;100274.44;;;3.88;77.65
7532;BME280;3807;49.030;8.714;2023-01-28T10:42:40;100279.56;;;3.95;75.89
7532;BME280;3807;49.030;8.714;2023-01-28T10:45:24;100277.69;;;3.74;76.09
7532;BME280;3807;49.030;8.714;2023-01-28T10:50:54;100282.81;;;3.87;77.65
7532;BME280;3807;49.030;8.714;2023-01-28T10:53:33;100282.78;;;3.80;76.28
7532;BME280;3807;49.030;8.714;2023-01-28T10:56:00;100283.69;;;3.89;75.94
7532;BME280;3807;49.030;8.714;2023-01-28T10:58:28;100282.81;;;3.84;75.98
7532;BME280;3807;49.030;8.714;2023-01-28T11:00:59;100287.72;;;3.73;76.95
7532;BME280;3807;49.030;8.714;2023-01-28T11:03:25;100290.31;;;3.79;76.73
7532;BME280;3807;49.030;8.714;2023-01-28T11:05:57;100281.91;;;3.78;76.50
7532;BME280;3807;49.030;8.714;2023-01-28T11:08:24;100288.59;;;3.75;76.84
7532;BME280;3807;49.030;8.714;2023-01-28T11:10:51;100291.19;;;3.81;76.20
7532;BME280;3807;49.030;8.714;2023-01-28T11:13:21;100287.78;;;3.79;77.03
7532;BME280;3807;49.030;8.714;2023-01-28T11:18:23;100284.50;;;3.86;77.13
7532;BME280;3807;49.030;8.714;2023-01-28T11:20:52;100289.59;;;3.92;76.21
7532;BME280;3807;49.030;8.714;2023-01-28T11:23:23;100288.69;;;3.86;76.18
7532;BME280;3807;49.030;8.714;2023-01-28T11:25:59;100288.81;;;3.99;77.40
7532;BME280;3807;49.030;8.714;2023-01-28T11:28:24;100292.19;;;4.00;75.66
7532;BME280;3807;49.030;8.714;2023-01-28T11:30:52;100292.97;;;3.91;75.86
7532;BME280;3807;49.030;8.714;2023-01-28T11:36:03;100289.72;;;4.04;77.18
7532;BME280;3807;49.030;8.714;2023-01-28T11:38:28;100288.72;;;3.89;76.29
7532;BME280;3807;49.030;8.714;2023-01-28T11:40:56;100291.34;;;4.01;76.40
7532;BME280;3807;49.030;8.714;2023-01-28T11:43:24;100293.41;;;3.55;77.85
7532;BME280;3807;49.030;8.714;2023-01-28T11:51:37;100293.53;;;3.66;77.65
7532;BME280;3807;49.030;8.714;2023-01-28T11:57:18;100288.63;;;3.78;76.92
7532;BME280;3807;49.030;8.714;2023-01-28T11:59:58;100284.56;;;3.91;77.47
7532;BME280;3807;49.030;8.714;2023-01-28T12:05:56;100290.38;;;3.87;76.68
7532;BME280;3807;49.030;8.714;2023-01-28T12:19:19;100287.16;;;4.03;76.93
7532;BME280;3807;49.030;8.714;2023-01-28T12:22:11;100275.28;;;3.90;77.08
7532;BME280;3807;49.030;8.714;2023-01-28T12:24:47;100285.44;;;3.97;77.00
7532;BME280;3807;49.030;8.714;2023-01-28T12:37:59;100274.66;;;4.14;77.03
7532;BME280;3807;49.030;8.714;2023-01-28T12:40:57;100267.97;;;4.16;76.74
7532;BME280;3807;49.030;8.714;2023-01-28T12:46:11;100264.63;;;4.20;76.50
7532;BME280;3807;49.030;8.714;2023-01-28T12:48:45;100269.59;;;4.09;76.90
7532;BME280;3807;49.030;8.714;2023-01-28T12:51:18;100261.09;;;3.98;77.50
7532;BME280;3807;49.030;8.714;2023-01-28T12:54:03;100259.59;;;4.20;76.57
7532;BME280;3807;49.030;8.714;2023-01-28T12:56:34;100266.38;;;4.30;76.09
7532;BME280;3807;49.030;8.714;2023-01-28T12:59:09;100266.22;;;4.10;76.80
7532;BME280;3807;49.030;8.714;2023-01-28T13:01:56;100261.94;;;4.00;77.57
7532;BME280;3807;49.030;8.714;2023-01-28T13:04:40;100264.66;;;4.23;76.42
7532;BME280;3807;49.030;8.714;2023-01-28T13:07:22;100263.78;;;4.21;76.52
7532;BME280;3807;49.030;8.714;2023-01-28T13:09:53;100261.22;;;4.15;77.03
7532;BME280;3807;49.030;8.714;2023-01-28T13:12:23;100264.63;;;4.20;76.47
7532;BME280;3807;49.030;8.714;2023-01-28T13:14:49;100260.53;;;4.33;76.01
7532;BME280;3807;49.030;8.714;2023-01-28T13:17:28;100262.25;;;4.41;75.80
7532;BME280;3807;49.030;8.714;2023-01-28T13:19:55;100266.38;;;4.32;76.11
7532;BME280;3807;49.030;8.714;2023-01-28T13:22:33;100259.69;;;4.34;75.75
7532;BME280;3807;49.030;8.714;2023-01-28T13:25:25;100256.28;;;4.25;76.32
7532;BME280;3807;49.030;8.714;2023-01-28T13:27:55;100271.37;;;4.22;76.28
7532;BME280;3807;49.030;8.714;2023-01-28T13:32:55;100273.94;;;4.28;76.01
7532;BME280;3807;49.030;8.714;2023-01-28T13:35:38;100269.69;;;4.24;76.34
7532;BME280;3807;49.030;8.714;2023-01-28T13:38:16;100273.16;;;4.39;75.91
7532;BME280;3807;49.030;8.714;2023-01-28T13:40:55;100265.53;;;4.28;75.64
7532;BME280;3807;49.030;8.714;2023-01-28T13:43:42;100260.66;;;4.51;75.08
7532;BME280;3807;49.030;8.714;2023-01-28T13:46:10;100272.50;;;4.64;74.75
7532;BME280;3807;49.030;8.714;2023-01-28T13:48:45;100280.84;;;4.54;75.01
7532;BME280;3807;49.030;8.714;2023-01-28T13:51:22;100282.31;;;4.24;75.46
7532;BME280;3807;49.030;8.714;2023-01-28T13:54:09;100282.41;;;4.38;75.61
7532;BME280;3807;49.030;8.714;2023-01-28T13:59:53;100290.78;;;4.33;75.23
7532;BME280;3807;49.030;8.714;2023-01-28T14:05:03;100293.53;;;4.66;74.16
7532;BME280;3807;49.030;8.714;2023-01-28T14:13:36;100301.03;;;4.60;74.75
7532;BME280;3807;49.030;8.714;2023-01-28T14:16:35;100306.16;;;4.65;74.71
7532;BME280;3807;49.030;8.714;2023-01-28T14:19:03;100318.59;;;4.43;75.32
7532;BME280;3807;49.030;8.714;2023-01-28T14:21:33;100312.72;;;4.44;74.88
7532;BME280;3807;49.030;8.714;2023-01-28T14:23:59;100310.28;;;4.60;74.39
7532;BME280;3807;49.030;8.714;2023-01-28T14:27:20;100322.03;;;4.56;74.84
7532;BME280;3807;49.030;8.714;2023-01-28T14:29:44;100322.03;;;4.50;74.69
7532;BME280;3807;49.030;8.714;2023-01-28T14:32:18;100328.91;;;4.71;74.04
7532;BME280;3807;49.030;8.714;2023-01-28T14:34:44;100324.72;;;4.76;74.15
7532;BME280;3807;49.030;8.714;2023-01-28T14:37:16;100327.16;;;4.65;74.60
7532;BME280;3807;49.030;8.714;2023-01-28T14:39:48;100331.44;;;4.77;74.03
7532;BME280;3807;49.030;8.714;2023-01-28T14:50:25;100348.19;;;4.66;74.52
7532;BME280;3807;49.030;8.714;2023-01-28T14:58:30;100347.34;;;4.65;74.34
7532;BME280;3807;49.030;8.714;2023-01-28T15:00:58;100354.03;;;4.59;73.83
7532;BME280;3807;49.030;8.714;2023-01-28T15:03:24;100356.56;;;4.57;74.54
7532;BME280;3807;49.030;8.714;2023-01-28T15:06:12;100349.03;;;4.65;73.92
7532;BME280;3807;49.030;8.714;2023-01-28T15:08:38;100351.41;;;4.48;74.61
7532;BME280;3807;49.030;8.714;2023-01-28T15:11:05;100352.41;;;4.64;72.98
7532;BME280;3807;49.030;8.714;2023-01-28T15:13:36;100352.28;;;4.50;72.84